createdAt,value
2018-04-08T06:37:40.173Z,7.60
2018-04-08T06:38:40.760Z,9.20
2018-04-08T06:39:41.361Z,9.00
2018-04-08T06:40:41.957Z,9.50
2018-04-08T06:41:42.513Z,8.90
2018-04-08T06:42:43.122Z,9.50
2018-04-08T06:43:43.703Z,9.00
2018-04-08T06:44:44.280Z,8.70
2018-04-08T06:45:44.864Z,9.10
2018-04-08T06:46:45.433Z,9.00
2018-04-08T06:47:46.041Z,8.60
2018-04-08T06:48:46.648Z,9.20
2018-04-08T06:49:47.236Z,8.80
2018-04-08T06:50:47.818Z,8.90
2018-04-08T06:52:49.510Z,11.20
2018-04-08T06:53:50.171Z,10.50
2018-04-08T06:54:50.752Z,10.00
2018-04-08T06:55:51.331Z,8.90
2018-04-08T06:56:51.907Z,9.00
2018-04-08T06:57:52.572Z,8.60
2018-04-08T06:58:53.176Z,8.60
2018-04-08T06:59:53.760Z,8.80
2018-04-08T07:01:54.655Z,8.60
2018-04-08T07:02:55.257Z,8.90
2018-04-08T07:03:55.825Z,8.70
2018-04-08T07:04:56.417Z,8.60
2018-04-08T07:05:57.649Z,9.00
2018-04-08T07:06:58.227Z,8.60
2018-04-08T07:07:58.848Z,8.90
2018-04-08T07:08:59.444Z,8.70
2018-04-08T07:10:00.038Z,8.60
2018-04-08T07:11:00.678Z,8.40
2018-04-08T07:12:01.382Z,9.10
2018-04-08T07:13:02.000Z,8.50
2018-04-08T07:14:02.627Z,9.00
2018-04-08T07:15:03.250Z,8.80
2018-04-08T07:16:03.851Z,8.50
2018-04-08T07:17:04.422Z,8.90
2018-04-08T07:18:05.055Z,8.50
2018-04-08T07:19:05.728Z,8.50
2018-04-08T07:20:06.380Z,8.90
2018-04-08T07:21:07.040Z,8.90
2018-04-08T07:22:07.661Z,8.80
2018-04-08T07:23:08.271Z,8.60
2018-04-08T07:24:08.898Z,8.70
2018-04-08T07:25:09.485Z,8.60
2018-04-08T07:26:10.097Z,8.90
2018-04-08T07:27:10.718Z,8.60
2018-04-08T07:28:11.352Z,8.50
2018-04-08T07:29:11.959Z,8.70
2018-04-08T07:30:12.578Z,8.40
2018-04-08T07:31:13.198Z,8.80
2018-04-08T07:32:13.789Z,8.10
2018-04-08T07:34:14.666Z,8.80
2018-04-08T07:35:15.257Z,9.10
2018-04-08T07:36:15.849Z,9.00
2018-04-08T07:37:16.481Z,8.70
2018-04-08T07:38:17.161Z,8.60
2018-04-08T07:39:17.747Z,9.30
2018-04-08T07:40:18.351Z,8.70
2018-04-08T07:41:18.911Z,8.80
2018-04-08T07:42:19.514Z,8.60
2018-04-08T07:43:20.099Z,8.70
2018-04-08T07:44:20.765Z,9.40
2018-04-08T07:45:21.428Z,8.80
2018-04-08T07:46:22.014Z,9.10
2018-04-08T07:47:22.604Z,8.30
2018-04-08T07:48:23.258Z,9.10
2018-04-08T07:49:23.877Z,8.70
2018-04-08T07:50:24.528Z,8.50
2018-04-08T07:51:25.110Z,8.70
2018-04-08T07:52:25.760Z,8.40
2018-04-08T07:53:26.329Z,8.10
2018-04-08T07:54:26.948Z,7.60
2018-04-08T07:55:27.561Z,8.80
2018-04-08T07:56:28.451Z,8.80
2018-04-08T07:57:29.142Z,9.10
2018-04-08T07:58:29.743Z,8.80
2018-04-08T07:59:30.323Z,9.00
2018-04-08T08:00:30.931Z,8.50
2018-04-08T08:01:31.502Z,9.60
2018-04-08T08:02:32.111Z,9.40
2018-04-08T08:03:32.704Z,8.90
2018-04-08T08:04:33.292Z,9.40
2018-04-08T08:05:33.967Z,8.50
2018-04-08T08:07:34.830Z,8.90
2018-04-08T08:08:35.413Z,7.80
2018-04-08T08:09:36.018Z,8.40
2018-04-08T08:10:36.596Z,8.10
2018-04-08T08:11:37.153Z,8.60
2018-04-08T08:12:37.748Z,8.90
2018-04-08T08:13:38.405Z,8.90
2018-04-08T08:14:38.965Z,8.90
2018-04-08T08:15:40.323Z,9.10
2018-04-08T08:16:41.378Z,8.70
2018-04-08T08:17:42.084Z,9.40
2018-04-08T08:18:42.668Z,9.30
2018-04-08T08:19:43.245Z,9.20
2018-04-08T08:20:43.971Z,9.60
2018-04-08T08:21:44.561Z,9.50
2018-04-08T08:22:45.183Z,9.90
2018-04-08T08:23:45.756Z,9.30
2018-04-08T08:24:46.325Z,8.30
2018-04-08T08:25:46.896Z,9.50
2018-04-08T08:26:47.479Z,10.20
2018-04-08T08:27:48.087Z,9.70
2018-04-08T08:28:48.693Z,9.60
2018-04-08T08:30:49.539Z,9.30
2018-04-08T08:32:50.385Z,9.50
2018-04-08T08:33:51.011Z,9.20
2018-04-08T08:35:51.895Z,9.50
2018-04-08T08:36:52.474Z,9.60
2018-04-08T08:38:53.379Z,8.50
2018-04-08T08:39:53.959Z,8.50
2018-04-08T08:40:54.542Z,8.30
2018-04-08T08:41:55.133Z,9.20
2018-04-08T08:42:55.708Z,8.90
2018-04-08T08:43:56.302Z,8.70
2018-04-08T08:44:56.893Z,9.50
2018-04-08T08:45:57.482Z,9.20
2018-04-08T08:46:58.101Z,9.50
2018-04-08T08:48:58.989Z,8.50
2018-04-08T08:49:59.907Z,9.20
2018-04-08T08:51:00.523Z,9.30
2018-04-08T08:52:01.090Z,9.20
2018-04-08T08:53:01.715Z,7.50
2018-04-08T08:54:02.301Z,9.30
2018-04-08T08:55:02.910Z,9.70
2018-04-08T08:56:03.667Z,9.00
2018-04-08T08:57:04.233Z,9.60
2018-04-08T08:58:05.529Z,9.00
2018-04-08T08:59:06.195Z,9.30
2018-04-08T09:00:06.757Z,9.20
2018-04-08T09:01:07.327Z,9.00
2018-04-08T09:02:07.900Z,9.50
2018-04-08T09:03:08.466Z,9.40
2018-04-08T09:04:09.060Z,9.30
2018-04-08T09:05:09.624Z,9.80
2018-04-08T09:06:10.217Z,9.30
2018-04-08T09:07:10.847Z,9.00
2018-04-08T09:08:11.435Z,9.10
2018-04-08T09:09:12.063Z,9.80
2018-04-08T09:10:12.640Z,9.80
2018-04-08T09:11:13.373Z,7.80
2018-04-08T09:13:14.227Z,8.70
2018-04-08T09:15:15.079Z,8.60
2018-04-08T09:16:15.649Z,9.60
2018-04-08T09:17:16.229Z,9.90
2018-04-08T09:18:16.801Z,9.30
2018-04-08T09:19:17.458Z,9.60
2018-04-08T09:20:18.041Z,10.20
2018-04-08T09:21:18.729Z,9.80
2018-04-08T09:22:19.298Z,10.60
2018-04-08T09:23:19.932Z,10.40
2018-04-08T09:24:20.550Z,9.80
2018-04-08T09:25:21.156Z,10.70
2018-04-08T09:26:22.728Z,10.30
2018-04-08T09:27:23.355Z,10.20
2018-04-08T09:28:23.916Z,11.90
2018-04-08T09:29:24.526Z,11.10
2018-04-08T09:30:25.104Z,10.60
2018-04-08T09:31:25.701Z,11.00
2018-04-08T09:32:26.476Z,10.90
2018-04-08T09:33:27.049Z,10.60
2018-04-08T09:34:27.661Z,10.70
2018-04-08T09:35:28.241Z,11.40
2018-04-08T09:36:28.905Z,10.70
2018-04-08T09:37:29.544Z,10.60
2018-04-08T09:38:30.153Z,10.90
2018-04-08T09:39:30.769Z,10.10
2018-04-08T09:40:31.336Z,10.30
2018-04-08T09:41:32.114Z,10.20
2018-04-08T09:42:32.704Z,10.40
2018-04-08T09:43:33.271Z,9.60
2018-04-08T09:44:33.868Z,10.40
2018-04-08T09:45:34.459Z,10.60
2018-04-08T09:46:35.070Z,10.50
2018-04-08T09:47:35.638Z,10.10
2018-04-08T09:48:36.236Z,10.60
2018-04-08T09:49:36.845Z,10.60
2018-04-08T09:50:37.416Z,11.00
2018-04-08T09:51:38.956Z,10.80
2018-04-08T09:52:39.546Z,10.40
2018-04-08T09:53:40.125Z,10.60
2018-04-08T09:54:40.746Z,11.30
2018-04-08T09:55:41.326Z,11.00
2018-04-08T09:56:41.901Z,10.50
2018-04-08T09:57:42.516Z,11.60
2018-04-08T09:58:43.103Z,11.00
2018-04-08T09:59:43.736Z,10.80
2018-04-08T10:00:44.304Z,11.40
2018-04-08T10:02:45.176Z,10.00
2018-04-08T10:03:45.740Z,10.40
2018-04-08T10:04:46.334Z,11.30
2018-04-08T10:05:46.936Z,10.70
2018-04-08T10:06:47.507Z,11.10
2018-04-08T10:07:48.089Z,10.30
2018-04-08T10:08:48.669Z,11.50
2018-04-08T10:09:49.283Z,10.40
2018-04-08T10:10:50.100Z,10.70
2018-04-08T10:11:50.714Z,11.60
2018-04-08T10:12:51.311Z,10.70
2018-04-08T10:13:51.889Z,11.20
2018-04-08T10:14:52.502Z,10.20
2018-04-08T10:15:53.063Z,11.10
2018-04-08T10:16:53.637Z,10.00
2018-04-08T10:17:54.233Z,10.80
2018-04-08T10:18:54.805Z,10.80
2018-04-08T10:19:55.417Z,10.60
2018-04-08T10:20:55.983Z,10.80
2018-04-08T10:21:56.577Z,11.20
2018-04-08T10:22:57.136Z,9.50
2018-04-08T10:23:57.718Z,11.30
2018-04-08T10:24:58.373Z,10.00
2018-04-08T10:25:58.971Z,10.20
2018-04-08T10:26:59.566Z,11.20
2018-04-08T10:28:00.144Z,10.50
2018-04-08T10:29:00.766Z,11.00
2018-04-08T10:30:01.431Z,10.60
2018-04-08T10:32:03.348Z,11.10
2018-04-08T10:33:03.978Z,10.80
2018-04-08T10:34:04.567Z,10.90
2018-04-08T10:36:05.463Z,10.70
2018-04-08T10:37:06.063Z,10.10
2018-04-08T10:38:06.671Z,11.00
2018-04-08T10:39:07.263Z,10.60
2018-04-08T10:40:07.873Z,12.00
2018-04-08T10:41:09.324Z,10.70
2018-04-08T10:42:09.907Z,11.40
2018-04-08T10:43:10.459Z,11.10
2018-04-08T10:44:11.045Z,11.50
2018-04-08T10:45:11.606Z,10.60
2018-04-08T10:46:12.268Z,10.80
2018-04-08T10:47:12.875Z,10.80
2018-04-08T10:48:13.489Z,11.40
2018-04-08T10:49:14.078Z,11.20
2018-04-08T10:50:14.989Z,10.40
2018-04-08T10:51:15.565Z,11.00
2018-04-08T10:52:16.147Z,10.40
2018-04-08T10:53:16.811Z,13.50
2018-04-08T10:54:17.381Z,13.20
2018-04-08T10:55:17.988Z,12.00
2018-04-08T10:56:18.762Z,11.10
2018-04-08T10:57:19.348Z,11.60
2018-04-08T10:58:19.956Z,11.80
2018-04-08T10:59:20.588Z,10.90
2018-04-08T11:00:21.183Z,11.00
2018-04-08T11:01:21.804Z,10.60
2018-04-08T11:03:22.684Z,10.60
2018-04-08T11:04:23.272Z,9.80
2018-04-08T11:05:23.868Z,11.00
2018-04-08T11:06:24.463Z,10.70
2018-04-08T11:07:25.047Z,9.90
2018-04-08T11:08:26.358Z,9.00
2018-04-08T11:09:27.212Z,10.70
2018-04-08T11:10:27.780Z,10.80
2018-04-08T11:11:28.372Z,10.60
2018-04-08T11:12:28.933Z,10.20
2018-04-08T11:13:29.549Z,9.20
2018-04-08T11:14:30.116Z,9.50
2018-04-08T11:15:30.702Z,11.00
2018-04-08T11:16:31.265Z,11.10
2018-04-08T11:17:31.833Z,10.70
2018-04-08T11:18:32.417Z,11.60
2018-04-08T11:19:33.015Z,11.00
2018-04-08T11:20:33.613Z,9.80
2018-04-08T11:21:34.179Z,11.30
2018-04-08T11:22:34.960Z,9.50
2018-04-08T11:23:35.597Z,11.90
2018-04-08T11:24:36.167Z,9.40
2018-04-08T11:25:36.786Z,11.20
2018-04-08T11:26:37.348Z,9.30
2018-04-08T11:27:37.922Z,11.60
2018-04-08T11:28:38.502Z,11.80
2018-04-08T11:29:39.074Z,11.20
2018-04-08T11:30:39.641Z,10.30
2018-04-08T11:31:40.219Z,11.70
2018-04-08T11:32:40.806Z,10.70
2018-04-08T11:34:41.664Z,11.90
2018-04-08T11:35:42.312Z,10.90
2018-04-08T11:36:42.886Z,11.70
2018-04-08T11:37:43.459Z,12.60
2018-04-08T11:38:44.094Z,12.40
2018-04-08T11:39:44.736Z,10.50
2018-04-08T11:40:45.309Z,11.20
2018-04-08T11:41:45.917Z,12.00
2018-04-08T11:42:46.502Z,11.80
2018-04-08T11:43:47.082Z,9.60
2018-04-08T11:45:47.921Z,11.30
2018-04-08T11:46:48.496Z,11.30
2018-04-08T11:47:49.072Z,12.20
2018-04-08T11:48:49.669Z,12.40
2018-04-08T11:49:50.232Z,12.10
2018-04-08T11:51:51.179Z,11.90
2018-04-08T11:52:51.764Z,11.50
2018-04-08T11:53:52.356Z,10.70
2018-04-08T11:54:52.914Z,10.40
2018-04-08T11:55:54.419Z,12.00
2018-04-08T11:56:55.019Z,11.30
2018-04-08T11:57:55.663Z,11.70
2018-04-08T11:59:56.508Z,12.10
2018-04-08T12:00:57.098Z,12.10
2018-04-08T12:01:57.726Z,11.30
2018-04-08T12:02:58.372Z,11.50
2018-04-08T12:03:58.997Z,11.70
2018-04-08T12:04:59.565Z,11.60
2018-04-08T12:06:00.151Z,11.70
2018-04-08T12:07:00.755Z,11.30
2018-04-08T12:08:01.350Z,11.30
2018-04-08T12:09:01.909Z,10.30
2018-04-08T12:10:02.479Z,10.00
2018-04-08T12:11:03.948Z,11.40
2018-04-08T12:12:04.604Z,10.40
2018-04-08T12:13:05.222Z,10.50
2018-04-08T12:14:05.876Z,10.50
2018-04-08T12:16:06.767Z,9.60
2018-04-08T12:17:07.401Z,10.30
2018-04-08T12:18:07.973Z,9.80
2018-04-08T12:20:08.824Z,10.90
2018-04-08T12:21:09.459Z,10.90
2018-04-08T12:22:10.036Z,10.80
2018-04-08T12:23:10.628Z,10.70
2018-04-08T12:24:11.415Z,11.50
2018-04-08T12:25:12.006Z,10.60
2018-04-08T12:26:12.576Z,9.70
2018-04-08T12:28:13.496Z,9.50
2018-04-08T12:29:14.106Z,9.30
2018-04-08T12:30:14.802Z,9.70
2018-04-08T12:31:15.408Z,9.90
2018-04-08T12:32:16.024Z,9.30
2018-04-08T12:33:16.636Z,9.00
2018-04-08T12:34:17.258Z,9.40
2018-04-08T12:35:17.992Z,9.60
2018-04-08T12:36:18.658Z,9.20
2018-04-08T12:37:19.558Z,9.50
2018-04-08T12:38:20.513Z,9.30
2018-04-08T12:39:21.144Z,9.30
2018-04-08T12:41:21.985Z,9.60
2018-04-08T12:43:22.862Z,8.70
2018-04-08T12:44:23.434Z,8.20
2018-04-08T12:45:24.000Z,8.90
2018-04-08T12:46:24.611Z,9.20
2018-04-08T12:47:25.178Z,8.20
2018-04-08T12:48:25.744Z,8.50
2018-04-08T12:49:26.321Z,8.70
2018-04-08T12:50:26.895Z,8.90
2018-04-08T12:51:27.444Z,9.30
2018-04-08T12:52:28.046Z,8.90
2018-04-08T12:53:28.650Z,9.10
2018-04-08T12:54:29.218Z,7.90
2018-04-08T12:55:29.785Z,8.40
2018-04-08T12:56:30.391Z,9.10
2018-04-08T12:57:31.017Z,8.60
2018-04-08T12:58:31.596Z,9.00
2018-04-08T12:59:32.169Z,8.50
2018-04-08T13:00:32.757Z,8.70
2018-04-08T13:01:33.387Z,9.20
2018-04-08T13:02:33.997Z,9.20
2018-04-08T13:03:34.558Z,8.40
2018-04-08T13:04:35.214Z,8.30
2018-04-08T13:05:35.771Z,7.50
2018-04-08T13:06:36.365Z,7.60
2018-04-08T13:07:37.010Z,7.30
2018-04-08T13:08:37.612Z,8.40
2018-04-08T13:09:38.234Z,7.80
2018-04-08T13:10:38.809Z,7.90
2018-04-08T13:11:39.440Z,7.30
2018-04-08T13:12:40.005Z,7.30
2018-04-08T13:13:40.595Z,7.00
2018-04-08T13:14:41.191Z,8.30
2018-04-08T13:15:41.750Z,7.60
2018-04-08T13:16:42.387Z,7.80
2018-04-08T13:17:42.993Z,7.70
2018-04-08T13:18:43.660Z,6.90
2018-04-08T13:19:44.236Z,7.10
2018-04-08T13:20:44.816Z,7.40
2018-04-08T13:21:45.404Z,7.30
2018-04-08T13:22:45.983Z,7.20
2018-04-08T13:23:46.572Z,6.80
2018-04-08T13:24:47.171Z,6.50
2018-04-08T13:25:47.769Z,7.10
2018-04-08T13:26:48.358Z,6.50
2018-04-08T13:27:48.948Z,6.30
2018-04-08T13:28:49.500Z,6.70
2018-04-08T13:29:50.099Z,7.30
2018-04-08T13:31:51.931Z,7.20
2018-04-08T13:32:52.511Z,6.80
2018-04-08T13:33:53.090Z,6.70
2018-04-08T13:34:53.647Z,6.20
2018-04-08T13:35:54.224Z,6.00
2018-04-08T13:36:54.811Z,6.50
2018-04-08T13:37:55.482Z,6.50
2018-04-08T13:38:56.077Z,6.20
2018-04-08T13:40:56.955Z,6.80
2018-04-08T13:41:57.548Z,6.30
2018-04-08T13:42:58.120Z,6.70
2018-04-08T13:43:58.686Z,6.70
2018-04-08T13:44:59.293Z,6.50
2018-04-08T13:45:59.911Z,6.70
2018-04-08T13:47:00.501Z,6.10
2018-04-08T13:48:01.116Z,6.40
2018-04-08T13:49:01.733Z,8.50
2018-04-08T13:50:02.313Z,7.10
2018-04-08T13:51:02.941Z,7.60
2018-04-08T13:52:03.572Z,6.80
2018-04-08T13:53:04.123Z,5.60
2018-04-08T13:54:04.728Z,8.20
2018-04-08T13:55:05.307Z,6.70
2018-04-08T13:56:05.916Z,9.20
2018-04-08T13:57:06.622Z,6.90
2018-04-08T13:58:07.188Z,7.70
2018-04-08T13:59:08.104Z,6.80
2018-04-08T14:00:08.774Z,7.20
2018-04-08T14:01:09.371Z,7.10
2018-04-08T14:02:09.966Z,6.00
2018-04-08T14:03:10.560Z,5.90
2018-04-08T14:04:11.276Z,5.80
2018-04-08T14:05:11.896Z,5.30
2018-04-08T14:06:12.484Z,5.10
2018-04-08T14:07:13.119Z,5.80
2018-04-08T14:08:13.693Z,5.10
2018-04-08T14:09:14.250Z,4.90
2018-04-08T14:10:14.898Z,5.00
2018-04-08T14:11:15.477Z,5.30
2018-04-08T14:13:16.372Z,5.00
2018-04-08T14:14:16.965Z,5.10
2018-04-08T14:15:17.554Z,4.70
2018-04-08T14:16:18.159Z,4.80
2018-04-08T14:17:18.732Z,4.60
2018-04-08T14:18:19.325Z,4.50
2018-04-08T14:19:19.915Z,4.40
2018-04-08T14:20:20.516Z,3.90
2018-04-08T14:21:21.156Z,3.60
2018-04-08T14:22:21.745Z,3.90
2018-04-08T14:23:22.346Z,3.50
2018-04-08T14:24:22.944Z,3.80
2018-04-08T14:25:26.545Z,3.80
2018-04-08T14:26:27.113Z,3.50
2018-04-08T14:28:27.995Z,3.10
2018-04-08T14:29:28.705Z,3.20
2018-04-08T14:30:29.279Z,3.00
2018-04-08T14:31:29.861Z,2.90
2018-04-08T14:33:30.741Z,3.20
2018-04-08T14:34:31.328Z,3.40
2018-04-08T14:35:31.953Z,3.50
2018-04-08T14:36:32.584Z,3.40
2018-04-08T14:37:33.745Z,3.40
2018-04-08T14:38:34.357Z,2.80
2018-04-08T14:39:34.966Z,3.30
2018-04-08T14:40:35.533Z,3.20
2018-04-08T14:41:36.141Z,3.00
2018-04-08T14:42:36.755Z,3.30
2018-04-08T14:43:37.336Z,3.10
2018-04-08T14:44:37.929Z,3.00
2018-04-08T14:45:38.511Z,3.10
2018-04-08T14:46:39.120Z,2.80
2018-04-08T14:47:39.769Z,3.30
2018-04-08T14:48:40.391Z,2.90
2018-04-08T14:49:40.974Z,3.00
2018-04-08T14:50:41.570Z,3.00
2018-04-08T14:51:42.178Z,2.90
2018-04-08T14:52:42.762Z,3.20
2018-04-08T14:53:43.394Z,3.30
2018-04-08T14:54:43.966Z,3.00
2018-04-08T14:56:44.844Z,3.00
2018-04-08T14:57:45.429Z,2.80
2018-04-08T14:58:46.036Z,2.70
2018-04-08T14:59:46.652Z,2.80
2018-04-08T15:00:47.243Z,2.70
2018-04-08T15:01:47.791Z,3.10
2018-04-08T15:02:48.351Z,3.00
2018-04-08T15:03:48.965Z,2.90
2018-04-08T15:04:49.553Z,2.80
2018-04-08T15:05:50.154Z,3.10
2018-04-08T15:06:50.771Z,3.30
2018-04-08T15:07:51.424Z,3.30
2018-04-08T15:08:52.049Z,3.40
2018-04-08T15:09:52.621Z,3.10
2018-04-08T15:10:53.250Z,2.90
2018-04-08T15:11:53.849Z,3.30
2018-04-08T15:12:54.412Z,3.10
2018-04-08T15:13:55.018Z,3.10
2018-04-08T15:14:55.627Z,3.10
2018-04-08T15:15:56.230Z,3.10
2018-04-08T15:16:56.844Z,3.40
2018-04-08T15:17:57.434Z,3.10
2018-04-08T15:18:58.008Z,2.90
2018-04-08T15:19:58.615Z,3.20
2018-04-08T15:20:59.213Z,3.50
2018-04-08T15:21:59.788Z,3.60
2018-04-08T15:23:00.380Z,3.20
2018-04-08T15:25:01.294Z,2.90
2018-04-08T15:26:01.896Z,3.30
2018-04-08T15:27:02.517Z,3.40
2018-04-08T15:28:03.081Z,3.40
2018-04-08T15:29:03.707Z,3.40
2018-04-08T15:30:04.276Z,3.60
2018-04-08T15:31:04.969Z,4.20
2018-04-08T15:32:05.652Z,3.90
2018-04-08T15:33:06.234Z,3.90
2018-04-08T15:34:06.864Z,3.60
2018-04-08T15:35:07.432Z,3.30
2018-04-08T15:36:08.009Z,3.40
2018-04-08T15:37:08.644Z,3.40
2018-04-08T15:38:09.273Z,3.70
2018-04-08T15:39:10.136Z,3.40
2018-04-08T15:40:10.892Z,3.80
2018-04-08T15:41:11.454Z,4.10
2018-04-08T15:43:12.339Z,4.10
2018-04-08T15:45:13.331Z,3.90
2018-04-08T15:46:13.916Z,4.00
2018-04-08T15:47:14.487Z,3.60
2018-04-08T15:48:15.096Z,3.50
2018-04-08T15:49:15.788Z,3.90
2018-04-08T15:50:16.376Z,3.70
2018-04-08T15:51:16.982Z,3.80
2018-04-08T15:52:17.734Z,3.90
2018-04-08T15:54:18.610Z,3.60
2018-04-08T15:55:19.166Z,3.30
2018-04-08T15:56:21.905Z,3.90
2018-04-08T15:57:22.487Z,3.10
2018-04-08T15:58:23.077Z,3.50
2018-04-08T15:59:23.702Z,3.50
2018-04-08T16:00:24.312Z,3.30
2018-04-08T16:01:25.061Z,3.80
2018-04-08T16:02:25.633Z,4.10
2018-04-08T16:03:26.207Z,3.80
2018-04-08T16:04:26.843Z,3.80
2018-04-08T16:05:27.394Z,4.00
2018-04-08T16:06:27.979Z,3.70
2018-04-08T16:07:28.548Z,4.00
2018-04-08T16:08:29.131Z,4.10
2018-04-08T16:09:29.713Z,4.00
2018-04-08T16:10:30.309Z,3.70
2018-04-08T16:11:30.916Z,3.70
2018-04-08T16:12:31.560Z,3.90
2018-04-08T16:14:32.469Z,3.50
2018-04-08T16:15:33.047Z,4.00
2018-04-08T16:16:33.638Z,4.10
2018-04-08T16:17:34.236Z,4.40
2018-04-08T16:18:34.874Z,5.20
2018-04-08T16:19:35.498Z,4.90
2018-04-08T16:20:36.136Z,5.80
2018-04-08T16:21:36.724Z,5.20
2018-04-08T16:22:37.355Z,4.50
2018-04-08T16:23:37.924Z,4.30
2018-04-08T16:24:38.559Z,4.10
2018-04-08T16:25:39.122Z,3.80
2018-04-08T16:26:39.720Z,4.00
2018-04-08T16:27:40.329Z,3.80
2018-04-08T16:28:40.949Z,4.20
2018-04-08T16:29:41.657Z,4.30
2018-04-08T16:30:42.227Z,4.00
2018-04-08T16:31:42.821Z,4.40
2018-04-08T16:32:43.408Z,7.50
2018-04-08T16:33:44.009Z,6.00
2018-04-08T16:34:44.594Z,7.60
2018-04-08T16:35:45.178Z,7.50
2018-04-08T16:36:45.839Z,5.00
2018-04-08T16:37:46.468Z,5.20
2018-04-08T16:38:47.069Z,4.70
2018-04-08T16:39:47.643Z,4.40
2018-04-08T16:40:48.218Z,4.30
2018-04-08T16:42:49.064Z,4.20
2018-04-08T16:44:49.946Z,4.30
2018-04-08T16:45:50.516Z,4.20
2018-04-08T16:46:51.153Z,4.00
2018-04-08T16:47:51.744Z,4.20
2018-04-08T16:48:52.331Z,4.50
2018-04-08T16:49:52.960Z,4.60
2018-04-08T16:50:53.575Z,4.80
2018-04-08T16:51:54.163Z,4.80
2018-04-08T16:52:54.738Z,4.40
2018-04-08T16:53:55.289Z,4.60
2018-04-08T16:54:55.899Z,4.50
2018-04-08T16:55:56.482Z,4.50
2018-04-08T16:57:57.389Z,4.90
2018-04-08T16:58:58.237Z,4.80
2018-04-08T16:59:58.868Z,4.30
2018-04-08T17:00:59.496Z,4.80
2018-04-08T17:02:00.089Z,4.40
2018-04-08T17:03:00.668Z,4.50
2018-04-08T17:04:01.372Z,4.60
2018-04-08T17:05:01.945Z,4.30
2018-04-08T17:06:02.515Z,4.50
2018-04-08T17:07:03.073Z,4.50
2018-04-08T17:08:03.698Z,4.90
2018-04-08T17:10:04.583Z,4.60
2018-04-08T17:11:05.207Z,4.10
2018-04-08T17:12:05.817Z,4.60
2018-04-08T17:13:06.391Z,4.30
2018-04-08T17:14:06.973Z,4.20
2018-04-08T17:15:07.540Z,3.90
2018-04-08T17:16:08.110Z,4.40
2018-04-08T17:17:08.727Z,4.10
2018-04-08T17:18:09.293Z,3.90
2018-04-08T17:19:09.870Z,4.50
2018-04-08T17:20:10.478Z,4.10
2018-04-08T17:21:11.062Z,3.80
2018-04-08T17:22:11.658Z,4.20
2018-04-08T17:23:12.342Z,3.90
2018-04-08T17:24:12.936Z,3.90
2018-04-08T17:25:13.537Z,4.10
2018-04-08T17:26:14.151Z,3.80
2018-04-08T17:27:14.708Z,3.70
2018-04-08T17:28:15.351Z,4.20
2018-04-08T17:29:15.914Z,3.90
2018-04-08T17:30:16.499Z,4.40
2018-04-08T17:31:17.080Z,4.00
2018-04-08T17:32:17.641Z,4.10
2018-04-08T17:33:18.225Z,3.70
2018-04-08T17:34:18.808Z,3.90
2018-04-08T17:35:19.410Z,4.10
2018-04-08T17:36:20.002Z,4.00
2018-04-08T17:37:20.579Z,3.60
2018-04-08T17:38:21.142Z,3.70
2018-04-08T17:39:21.721Z,3.70
2018-04-08T17:40:22.309Z,3.80
2018-04-08T17:41:22.922Z,4.00
2018-04-08T17:42:23.515Z,3.80
2018-04-08T17:43:24.208Z,3.70
2018-04-08T17:44:24.778Z,3.90
2018-04-08T17:45:25.415Z,3.60
2018-04-08T17:46:26.080Z,3.90
2018-04-08T17:47:26.688Z,4.10
2018-04-08T17:48:27.911Z,4.30
2018-04-08T17:49:28.512Z,3.70
2018-04-08T17:50:29.090Z,4.40
2018-04-08T17:51:29.690Z,4.80
2018-04-08T17:52:30.260Z,4.90
2018-04-08T17:53:30.857Z,4.80
2018-04-08T17:54:31.571Z,5.20
2018-04-08T17:55:32.174Z,5.00
2018-04-08T17:56:32.822Z,4.90
2018-04-08T17:57:33.545Z,4.80
2018-04-08T17:58:34.120Z,4.40
2018-04-08T17:59:34.758Z,4.80
2018-04-08T18:00:35.338Z,4.90
2018-04-08T18:01:35.927Z,4.80
2018-04-08T18:02:36.502Z,5.70
2018-04-08T18:03:37.124Z,5.60
2018-04-08T18:04:37.688Z,5.80
2018-04-08T18:05:38.275Z,5.10
2018-04-08T18:06:38.963Z,5.40
2018-04-08T18:07:39.573Z,5.10
2018-04-08T18:08:40.169Z,5.30
2018-04-08T18:09:40.749Z,5.30
2018-04-08T18:10:41.375Z,5.30
2018-04-08T18:11:41.965Z,5.50
2018-04-08T18:12:43.004Z,5.50
2018-04-08T18:13:44.299Z,5.70
2018-04-08T18:14:44.897Z,5.50
2018-04-08T18:15:45.465Z,5.10
2018-04-08T18:16:46.036Z,5.50
2018-04-08T18:17:46.616Z,5.90
2018-04-08T18:18:47.189Z,5.60
2018-04-08T18:19:47.757Z,5.60
2018-04-08T18:20:48.319Z,5.60
2018-04-08T18:21:48.888Z,5.50
2018-04-08T18:22:49.503Z,5.60
2018-04-08T18:23:50.092Z,6.00
2018-04-08T18:24:50.670Z,5.70
2018-04-08T18:25:51.283Z,5.80
2018-04-08T18:26:51.851Z,5.90
2018-04-08T18:27:52.433Z,6.00
2018-04-08T18:28:52.997Z,6.10
2018-04-08T18:29:53.648Z,6.20
2018-04-08T18:31:54.563Z,5.80
2018-04-08T18:32:55.131Z,5.70
2018-04-08T18:33:55.760Z,6.00
2018-04-08T18:34:56.364Z,5.30
2018-04-08T18:35:57.047Z,5.90
2018-04-08T18:36:57.648Z,5.70
2018-04-08T18:37:58.206Z,5.70
2018-04-08T18:38:58.798Z,6.20
2018-04-08T18:39:59.344Z,5.70
2018-04-08T18:40:59.931Z,6.10
2018-04-08T18:42:00.513Z,5.80
2018-04-08T18:43:01.137Z,5.60
2018-04-08T18:44:01.715Z,5.90
2018-04-08T18:45:02.339Z,6.00
2018-04-08T18:46:02.924Z,5.90
2018-04-08T18:47:03.511Z,5.80
2018-04-08T18:48:04.153Z,5.60
2018-04-08T18:49:04.729Z,6.00
2018-04-08T18:50:05.318Z,5.80
2018-04-08T18:51:05.897Z,6.00
2018-04-08T18:52:06.515Z,5.60
2018-04-08T18:53:07.095Z,5.80
2018-04-08T18:54:07.656Z,5.50
2018-04-08T18:55:08.224Z,5.80
2018-04-08T18:56:09.872Z,5.90
2018-04-08T18:57:10.454Z,5.70
2018-04-08T18:58:11.107Z,5.60
2018-04-08T18:59:11.699Z,5.80
2018-04-08T19:00:12.266Z,5.80
2018-04-08T19:01:12.911Z,5.60
2018-04-08T19:02:13.471Z,6.00
